sensor_id;sensor_type;location;lat;lon;timestamp;pressure;altitude;pressure_sealevel;temperature;humidity
59757;BME280;45631;51.962;5.974;2022-10-31T00:00:46;101912.84;;;12.21;100.00
59757;BME280;45631;51.962;5.974;2022-10-31T00:03:14;101914.22;;;12.12;100.00
59757;BME280;45631;51.962;5.974;2022-10-31T00:05:45;101915.22;;;12.10;100.00
59757;BME280;45631;51.962;5.974;2022-10-31T00:08:14;101921.69;;;12.04;100.00
59757;BME280;45631;51.962;5.974;2022-10-31T00:10:44;101922.09;;;11.96;100.00
59757;BME280;45631;51.962;5.974;2022-10-31T00:13:13;101925.97;;;11.89;100.00
59757;BME280;45631;51.962;5.974;2022-10-31T00:15:42;101921.47;;;11.91;100.00
59757;BME280;45631;51.962;5.974;2022-10-31T00:18:10;101917.97;;;11.91;100.00
59757;BME280;45631;51.962;5.974;2022-10-31T00:20:41;101912.00;;;11.87;100.00
59757;BME280;45631;51.962;5.974;2022-10-31T00:23:11;101915.75;;;11.83;100.00
59757;BME280;45631;51.962;5.974;2022-10-31T00:25:39;101925.28;;;11.86;100.00
59757;BME280;45631;51.962;5.974;2022-10-31T00:28:09;101919.31;;;11.82;100.00
59757;BME280;45631;51.962;5.974;2022-10-31T00:30:38;101925.53;;;11.81;100.00
59757;BME280;45631;51.962;5.974;2022-10-31T00:33:06;101929.25;;;11.77;100.00
59757;BME280;45631;51.962;5.974;2022-10-31T00:35:34;101930.94;;;11.78;100.00
59757;BME280;45631;51.962;5.974;2022-10-31T00:38:03;101924.13;;;11.74;100.00
59757;BME280;45631;51.962;5.974;2022-10-31T00:40:35;101931.28;;;11.72;100.00
59757;BME280;45631;51.962;5.974;2022-10-31T00:43:03;101933.38;;;11.65;100.00
59757;BME280;45631;51.962;5.974;2022-10-31T00:45:31;101930.84;;;11.63;100.00
59757;BME280;45631;51.962;5.974;2022-10-31T00:47:59;101924.88;;;11.60;100.00
59757;BME280;45631;51.962;5.974;2022-10-31T00:50:28;101930.31;;;11.57;100.00
59757;BME280;45631;51.962;5.974;2022-10-31T00:52:57;101935.75;;;11.54;100.00
59757;BME280;45631;51.962;5.974;2022-10-31T00:55:25;101929.00;;;11.48;100.00
59757;BME280;45631;51.962;5.974;2022-10-31T00:57:54;101933.41;;;11.47;100.00
59757;BME280;45631;51.962;5.974;2022-10-31T01:00:23;101936.91;;;11.48;100.00
59757;BME280;45631;51.962;5.974;2022-10-31T01:02:51;101930.84;;;11.46;100.00
59757;BME280;45631;51.962;5.974;2022-10-31T01:05:19;101931.94;;;11.42;100.00
59757;BME280;45631;51.962;5.974;2022-10-31T01:07:47;101935.59;;;11.39;100.00
59757;BME280;45631;51.962;5.974;2022-10-31T01:10:16;101935.84;;;11.35;100.00
59757;BME280;45631;51.962;5.974;2022-10-31T01:12:47;101937.50;;;11.36;100.00
59757;BME280;45631;51.962;5.974;2022-10-31T01:15:19;101938.56;;;11.33;100.00
59757;BME280;45631;51.962;5.974;2022-10-31T01:17:47;101924.97;;;11.23;100.00
59757;BME280;45631;51.962;5.974;2022-10-31T01:20:16;101926.84;;;11.21;100.00
59757;BME280;45631;51.962;5.974;2022-10-31T01:22:45;101924.44;;;11.16;100.00
59757;BME280;45631;51.962;5.974;2022-10-31T01:25:13;101931.56;;;11.14;100.00
59757;BME280;45631;51.962;5.974;2022-10-31T01:27:41;101931.50;;;11.16;100.00
59757;BME280;45631;51.962;5.974;2022-10-31T01:30:10;101935.91;;;11.15;100.00
59757;BME280;45631;51.962;5.974;2022-10-31T01:32:40;101936.03;;;11.12;100.00
59757;BME280;45631;51.962;5.974;2022-10-31T01:35:08;101931.72;;;11.11;100.00
59757;BME280;45631;51.962;5.974;2022-10-31T01:37:36;101937.84;;;11.12;100.00
59757;BME280;45631;51.962;5.974;2022-10-31T01:40:05;101929.31;;;11.07;100.00
59757;BME280;45631;51.962;5.974;2022-10-31T01:42:33;101926.59;;;11.08;100.00
59757;BME280;45631;51.962;5.974;2022-10-31T01:45:03;101915.56;;;11.02;100.00
59757;BME280;45631;51.962;5.974;2022-10-31T01:47:38;101912.22;;;10.98;100.00
59757;BME280;45631;51.962;5.974;2022-10-31T01:50:20;101912.41;;;10.93;100.00
59757;BME280;45631;51.962;5.974;2022-10-31T01:52:52;101902.84;;;10.92;100.00
59757;BME280;45631;51.962;5.974;2022-10-31T01:55:23;101908.31;;;10.88;100.00
59757;BME280;45631;51.962;5.974;2022-10-31T01:57:58;101911.94;;;10.85;100.00
59757;BME280;45631;51.962;5.974;2022-10-31T02:00:29;101907.09;;;10.77;100.00
59757;BME280;45631;51.962;5.974;2022-10-31T02:02:57;101903.38;;;10.81;100.00
59757;BME280;45631;51.962;5.974;2022-10-31T02:05:29;101912.03;;;10.83;100.00
59757;BME280;45631;51.962;5.974;2022-10-31T02:08:00;101919.00;;;10.85;100.00
59757;BME280;45631;51.962;5.974;2022-10-31T02:10:31;101922.63;;;10.82;100.00
59757;BME280;45631;51.962;5.974;2022-10-31T02:13:03;101920.16;;;10.79;100.00
59757;BME280;45631;51.962;5.974;2022-10-31T02:15:32;101918.28;;;10.81;100.00
59757;BME280;45631;51.962;5.974;2022-10-31T02:18:01;101920.16;;;10.79;100.00
59757;BME280;45631;51.962;5.974;2022-10-31T02:20:33;101919.53;;;10.74;100.00
59757;BME280;45631;51.962;5.974;2022-10-31T02:23:44;101920.44;;;10.73;100.00
59757;BME280;45631;51.962;5.974;2022-10-31T02:26:51;101924.03;;;10.72;100.00
59757;BME280;45631;51.962;5.974;2022-10-31T02:29:53;101921.53;;;10.69;100.00
59757;BME280;45631;51.962;5.974;2022-10-31T02:32:29;101922.47;;;10.68;100.00
59757;BME280;45631;51.962;5.974;2022-10-31T02:35:10;101924.31;;;10.65;100.00
59757;BME280;45631;51.962;5.974;2022-10-31T02:37:48;101922.47;;;10.68;100.00
59757;BME280;45631;51.962;5.974;2022-10-31T02:40:23;101924.31;;;10.65;100.00
59757;BME280;45631;51.962;5.974;2022-10-31T02:42:59;101932.13;;;10.67;100.00
59757;BME280;45631;51.962;5.974;2022-10-31T02:45:33;101928.72;;;10.65;100.00
59757;BME280;45631;51.962;5.974;2022-10-31T02:48:10;101920.75;;;10.67;100.00
59757;BME280;45631;51.962;5.974;2022-10-31T02:50:42;101924.38;;;10.64;100.00
59757;BME280;45631;51.962;5.974;2022-10-31T02:53:14;101921.53;;;10.69;100.00
59757;BME280;45631;51.962;5.974;2022-10-31T02:55:48;101912.94;;;10.65;100.00
59757;BME280;45631;51.962;5.974;2022-10-31T02:58:21;101919.84;;;10.68;100.00
59757;BME280;45631;51.962;5.974;2022-10-31T03:01:05;101919.03;;;10.65;100.00
59757;BME280;45631;51.962;5.974;2022-10-31T03:03:42;101910.75;;;10.56;100.00
59757;BME280;45631;51.962;5.974;2022-10-31T03:06:20;101913.59;;;10.51;100.00
59757;BME280;45631;51.962;5.974;2022-10-31T03:08:57;101905.94;;;10.46;100.00
59757;BME280;45631;51.962;5.974;2022-10-31T03:11:32;101910.28;;;10.47;100.00
59757;BME280;45631;51.962;5.974;2022-10-31T03:14:10;101912.19;;;10.44;100.00
59757;BME280;45631;51.962;5.974;2022-10-31T03:16:43;101915.69;;;10.44;100.00
59757;BME280;45631;51.962;5.974;2022-10-31T03:19:17;101919.38;;;10.40;100.00
59757;BME280;45631;51.962;5.974;2022-10-31T03:21:50;101922.78;;;10.42;100.00
59757;BME280;45631;51.962;5.974;2022-10-31T03:24:21;101924.88;;;10.34;100.00
59757;BME280;45631;51.962;5.974;2022-10-31T03:26:51;101925.16;;;10.28;100.00
59757;BME280;45631;51.962;5.974;2022-10-31T03:29:22;101924.53;;;10.23;100.00
59757;BME280;45631;51.962;5.974;2022-10-31T03:31:55;101916.59;;;10.24;100.00
59757;BME280;45631;51.962;5.974;2022-10-31T03:34:28;101924.75;;;10.18;100.00
59757;BME280;45631;51.962;5.974;2022-10-31T03:37:02;101925.72;;;10.15;100.00
59757;BME280;45631;51.962;5.974;2022-10-31T03:39:31;101931.22;;;10.11;100.00
59757;BME280;45631;51.962;5.974;2022-10-31T03:42:05;101930.63;;;10.04;100.00
59757;BME280;45631;51.962;5.974;2022-10-31T03:44:35;101928.34;;;9.96;100.00
59757;BME280;45631;51.962;5.974;2022-10-31T03:47:06;101927.66;;;9.93;100.00
59757;BME280;45631;51.962;5.974;2022-10-31T03:49:36;101923.47;;;9.89;100.00
59757;BME280;45631;51.962;5.974;2022-10-31T03:52:12;101926.84;;;9.91;100.00
59757;BME280;45631;51.962;5.974;2022-10-31T03:54:43;101926.63;;;9.76;100.00
59757;BME280;45631;51.962;5.974;2022-10-31T03:57:16;101932.94;;;9.72;100.00
59757;BME280;45631;51.962;5.974;2022-10-31T03:59:51;101925.69;;;9.77;100.00
59757;BME280;45631;51.962;5.974;2022-10-31T04:02:26;101918.53;;;9.81;100.00
59757;BME280;45631;51.962;5.974;2022-10-31T04:04:57;101930.41;;;9.71;100.00
59757;BME280;45631;51.962;5.974;2022-10-31T04:07:29;101926.81;;;9.72;100.00
59757;BME280;45631;51.962;5.974;2022-10-31T04:10:00;101925.25;;;9.68;100.00
59757;BME280;45631;51.962;5.974;2022-10-31T04:12:31;101924.34;;;9.69;100.00
59757;BME280;45631;51.962;5.974;2022-10-31T04:15:02;101924.56;;;9.64;100.00
59757;BME280;45631;51.962;5.974;2022-10-31T04:17:34;101932.63;;;9.59;100.00
59757;BME280;45631;51.962;5.974;2022-10-31T04:20:06;101930.06;;;9.58;100.00
59757;BME280;45631;51.962;5.974;2022-10-31T04:22:35;101925.78;;;9.55;100.00
59757;BME280;45631;51.962;5.974;2022-10-31T04:25:03;101925.13;;;9.50;100.00
59757;BME280;45631;51.962;5.974;2022-10-31T04:27:31;101919.88;;;9.50;100.00
59757;BME280;45631;51.962;5.974;2022-10-31T04:30:00;101915.50;;;9.51;100.00
59757;BME280;45631;51.962;5.974;2022-10-31T04:32:28;101914.03;;;9.43;100.00
59757;BME280;45631;51.962;5.974;2022-10-31T04:34:56;101914.91;;;9.44;100.00
59757;BME280;45631;51.962;5.974;2022-10-31T04:37:26;101914.25;;;9.39;100.00
59757;BME280;45631;51.962;5.974;2022-10-31T04:39:54;101909.00;;;9.39;100.00
59757;BME280;45631;51.962;5.974;2022-10-31T04:42:22;101915.16;;;9.38;100.00
59757;BME280;45631;51.962;5.974;2022-10-31T04:44:50;101923.09;;;9.36;100.00
59757;BME280;45631;51.962;5.974;2022-10-31T04:47:18;101923.03;;;9.38;100.00
59757;BME280;45631;51.962;5.974;2022-10-31T04:49:46;101921.53;;;9.32;100.00
59757;BME280;45631;51.962;5.974;2022-10-31T04:52:14;101919.81;;;9.31;100.00
59757;BME280;45631;51.962;5.974;2022-10-31T04:54:46;101920.84;;;9.28;100.00
59757;BME280;45631;51.962;5.974;2022-10-31T04:57:14;101920.16;;;9.23;100.00
59757;BME280;45631;51.962;5.974;2022-10-31T04:59:42;101921.59;;;9.30;100.00
59757;BME280;45631;51.962;5.974;2022-10-31T05:02:10;101920.16;;;9.23;100.00
59757;BME280;45631;51.962;5.974;2022-10-31T05:04:38;101915.75;;;9.24;100.00
59757;BME280;45631;51.962;5.974;2022-10-31T05:07:06;101907.22;;;9.19;100.00
59757;BME280;45631;51.962;5.974;2022-10-31T05:09:34;101914.03;;;9.23;100.00
59757;BME280;45631;51.962;5.974;2022-10-31T05:12:04;101908.09;;;9.19;100.00
59757;BME280;45631;51.962;5.974;2022-10-31T05:14:32;101915.97;;;9.19;100.00
59757;BME280;45631;51.962;5.974;2022-10-31T05:17:00;101910.66;;;9.21;100.00
59757;BME280;45631;51.962;5.974;2022-10-31T05:19:28;101909.13;;;9.15;100.00
59757;BME280;45631;51.962;5.974;2022-10-31T05:21:56;101912.06;;;9.07;100.00
59757;BME280;45631;51.962;5.974;2022-10-31T05:24:24;101900.75;;;9.07;100.00
59757;BME280;45631;51.962;5.974;2022-10-31T05:26:52;101902.38;;;9.09;100.00
59757;BME280;45631;51.962;5.974;2022-10-31T05:29:22;101899.03;;;9.06;100.00
59757;BME280;45631;51.962;5.974;2022-10-31T05:31:50;101894.53;;;9.08;100.00
59757;BME280;45631;51.962;5.974;2022-10-31T05:34:18;101893.63;;;9.09;100.00
59757;BME280;45631;51.962;5.974;2022-10-31T05:36:46;101895.28;;;9.11;100.00
59757;BME280;45631;51.962;5.974;2022-10-31T05:39:14;101894.44;;;9.11;100.00
59757;BME280;45631;51.962;5.974;2022-10-31T05:41:43;101895.34;;;9.10;100.00
59757;BME280;45631;51.962;5.974;2022-10-31T05:44:11;101889.44;;;9.05;100.00
59757;BME280;45631;51.962;5.974;2022-10-31T05:46:40;101885.84;;;9.07;100.00
59757;BME280;45631;51.962;5.974;2022-10-31T05:49:08;101895.59;;;9.04;100.00
59757;BME280;45631;51.962;5.974;2022-10-31T05:51:36;101900.06;;;9.02;100.00
59757;BME280;45631;51.962;5.974;2022-10-31T05:54:04;101899.78;;;9.08;100.00
59757;BME280;45631;51.962;5.974;2022-10-31T05:56:37;101896.41;;;9.06;100.00
59757;BME280;45631;51.962;5.974;2022-10-31T05:59:05;101899.88;;;9.06;100.00
59757;BME280;45631;51.962;5.974;2022-10-31T06:01:33;101895.56;;;9.05;100.00
59757;BME280;45631;51.962;5.974;2022-10-31T06:04:03;101896.47;;;9.04;100.00
59757;BME280;45631;51.962;5.974;2022-10-31T06:06:31;101895.28;;;9.11;100.00
59757;BME280;45631;51.962;5.974;2022-10-31T06:08:59;101896.19;;;9.10;100.00
59757;BME280;45631;51.962;5.974;2022-10-31T06:11:27;101897.97;;;9.10;100.00
59757;BME280;45631;51.962;5.974;2022-10-31T06:13:55;101900.41;;;9.14;100.00
59757;BME280;45631;51.962;5.974;2022-10-31T06:16:23;101902.94;;;9.16;100.00
59757;BME280;45631;51.962;5.974;2022-10-31T06:18:54;101888.97;;;9.16;100.00
59757;BME280;45631;51.962;5.974;2022-10-31T06:21:23;101894.31;;;9.14;100.00
59757;BME280;45631;51.962;5.974;2022-10-31T06:23:52;101888.00;;;9.18;100.00
59757;BME280;45631;51.962;5.974;2022-10-31T06:26:20;101881.94;;;9.16;100.00
59757;BME280;45631;51.962;5.974;2022-10-31T06:28:48;101887.41;;;9.11;100.00
59757;BME280;45631;51.962;5.974;2022-10-31T06:31:16;101893.84;;;9.04;100.00
59757;BME280;45631;51.962;5.974;2022-10-31T06:33:44;101897.38;;;9.03;100.00
59757;BME280;45631;51.962;5.974;2022-10-31T06:36:12;101894.75;;;9.03;100.00
59757;BME280;45631;51.962;5.974;2022-10-31T06:38:42;101894.81;;;9.02;100.00
59757;BME280;45631;51.962;5.974;2022-10-31T06:41:10;101897.59;;;8.99;100.00
59757;BME280;45631;51.962;5.974;2022-10-31T06:43:38;101896.56;;;9.01;100.00
59757;BME280;45631;51.962;5.974;2022-10-31T06:46:06;101896.78;;;8.96;100.00
59757;BME280;45631;51.962;5.974;2022-10-31T06:48:34;101896.47;;;9.04;100.00
59757;BME280;45631;51.962;5.974;2022-10-31T06:51:03;101896.63;;;9.00;100.00
59757;BME280;45631;51.962;5.974;2022-10-31T06:53:31;101895.94;;;8.96;100.00
59757;BME280;45631;51.962;5.974;2022-10-31T06:56:01;101894.16;;;8.96;100.00
59757;BME280;45631;51.962;5.974;2022-10-31T06:58:29;101896.53;;;9.03;100.00
59757;BME280;45631;51.962;5.974;2022-10-31T07:00:59;101897.16;;;9.08;100.00
59757;BME280;45631;51.962;5.974;2022-10-31T07:03:27;101903.22;;;9.10;100.00
59757;BME280;45631;51.962;5.974;2022-10-31T07:05:56;101900.41;;;9.14;100.00
59757;BME280;45631;51.962;5.974;2022-10-31T07:08:24;101904.66;;;9.17;100.00
59757;BME280;45631;51.962;5.974;2022-10-31T07:10:54;101907.34;;;9.16;100.00
59757;BME280;45631;51.962;5.974;2022-10-31T07:13:24;101906.84;;;9.28;100.00
59757;BME280;45631;51.962;5.974;2022-10-31T07:15:54;101905.84;;;9.30;100.00
59757;BME280;45631;51.962;5.974;2022-10-31T07:18:23;101903.16;;;9.32;100.00
59757;BME280;45631;51.962;5.974;2022-10-31T07:20:52;101911.75;;;9.36;100.00
59757;BME280;45631;51.962;5.974;2022-10-31T07:23:20;101903.88;;;9.36;100.00
59757;BME280;45631;51.962;5.974;2022-10-31T07:25:53;101905.47;;;9.40;100.00
59757;BME280;45631;51.962;5.974;2022-10-31T07:28:23;101906.22;;;9.42;100.00
59757;BME280;45631;51.962;5.974;2022-10-31T07:30:54;101911.16;;;9.50;100.00
59757;BME280;45631;51.962;5.974;2022-10-31T07:33:23;101903.22;;;9.51;100.00
59757;BME280;45631;51.962;5.974;2022-10-31T07:35:53;101904.94;;;9.52;100.00
59757;BME280;45631;51.962;5.974;2022-10-31T07:38:21;101898.47;;;9.59;100.00
59757;BME280;45631;51.962;5.974;2022-10-31T07:40:51;101904.38;;;9.64;100.00
59757;BME280;45631;51.962;5.974;2022-10-31T07:43:19;101898.59;;;9.77;100.00
59757;BME280;45631;51.962;5.974;2022-10-31T07:45:53;101891.19;;;9.85;100.00
59757;BME280;45631;51.962;5.974;2022-10-31T07:48:21;101896.97;;;9.93;100.00
59757;BME280;45631;51.962;5.974;2022-10-31T07:50:49;101897.47;;;10.02;100.00
59757;BME280;45631;51.962;5.974;2022-10-31T07:53:17;101901.50;;;10.09;100.00
59757;BME280;45631;51.962;5.974;2022-10-31T07:55:46;101904.94;;;10.11;100.00
59757;BME280;45631;51.962;5.974;2022-10-31T07:58:15;101909.84;;;10.19;100.00
59757;BME280;45631;51.962;5.974;2022-10-31T08:00:45;101908.38;;;10.30;100.00
59757;BME280;45631;51.962;5.974;2022-10-31T08:03:17;101905.09;;;10.46;100.00
59757;BME280;45631;51.962;5.974;2022-10-31T08:05:46;101912.53;;;10.55;100.00
59757;BME280;45631;51.962;5.974;2022-10-31T08:08:14;101912.66;;;10.52;100.00
59757;BME280;45631;51.962;5.974;2022-10-31T08:10:43;101914.28;;;10.91;100.00
59757;BME280;45631;51.962;5.974;2022-10-31T08:13:13;101909.97;;;11.08;100.00
59757;BME280;45631;51.962;5.974;2022-10-31T08:15:41;101912.81;;;11.21;100.00
59757;BME280;45631;51.962;5.974;2022-10-31T08:18:12;101909.03;;;11.26;100.00
59757;BME280;45631;51.962;5.974;2022-10-31T08:20:42;101913.69;;;11.21;100.00
59757;BME280;45631;51.962;5.974;2022-10-31T08:23:11;101920.59;;;11.24;100.00
59757;BME280;45631;51.962;5.974;2022-10-31T08:25:40;101926.06;;;11.37;100.00
59757;BME280;45631;51.962;5.974;2022-10-31T08:28:09;101915.69;;;11.51;100.00
59757;BME280;45631;51.962;5.974;2022-10-31T08:30:39;101917.19;;;11.73;100.00
59757;BME280;45631;51.962;5.974;2022-10-31T08:33:10;101911.75;;;11.76;100.00
59757;BME280;45631;51.962;5.974;2022-10-31T08:35:38;101920.53;;;11.92;100.00
59757;BME280;45631;51.962;5.974;2022-10-31T08:38:10;101913.53;;;12.09;100.00
59757;BME280;45631;51.962;5.974;2022-10-31T08:40:39;101911.75;;;12.25;100.00
59757;BME280;45631;51.962;5.974;2022-10-31T08:43:11;101900.41;;;12.39;100.00
59757;BME280;45631;51.962;5.974;2022-10-31T08:45:40;101905.19;;;12.48;100.00
59757;BME280;45631;51.962;5.974;2022-10-31T08:48:10;101900.69;;;12.50;100.00
59757;BME280;45631;51.962;5.974;2022-10-31T08:50:39;101902.94;;;12.73;100.00
59757;BME280;45631;51.962;5.974;2022-10-31T08:53:10;101900.44;;;12.85;100.00
59757;BME280;45631;51.962;5.974;2022-10-31T08:55:39;101896.72;;;13.04;100.00
59757;BME280;45631;51.962;5.974;2022-10-31T08:58:18;101898.34;;;13.07;100.00
59757;BME280;45631;51.962;5.974;2022-10-31T09:00:47;101891.66;;;13.15;100.00
59757;BME280;45631;51.962;5.974;2022-10-31T09:03:18;101901.56;;;13.26;100.00
59757;BME280;45631;51.962;5.974;2022-10-31T09:05:47;101887.66;;;13.39;100.00
59757;BME280;45631;51.962;5.974;2022-10-31T09:08:16;101886.06;;;13.50;100.00
59757;BME280;45631;51.962;5.974;2022-10-31T09:10:45;101890.72;;;13.61;100.00
59757;BME280;45631;51.962;5.974;2022-10-31T09:13:15;101877.66;;;13.73;100.00
59757;BME280;45631;51.962;5.974;2022-10-31T09:15:45;101881.66;;;13.80;100.00
59757;BME280;45631;51.962;5.974;2022-10-31T09:18:16;101881.16;;;13.88;100.00
59757;BME280;45631;51.962;5.974;2022-10-31T09:20:45;101881.03;;;14.03;100.00
59757;BME280;45631;51.962;5.974;2022-10-31T09:23:15;101885.53;;;14.16;100.00
59757;BME280;45631;51.962;5.974;2022-10-31T09:25:45;101888.16;;;14.30;100.00
59757;BME280;45631;51.962;5.974;2022-10-31T09:28:18;101886.50;;;14.42;100.00
59757;BME280;45631;51.962;5.974;2022-10-31T09:30:48;101890.13;;;14.41;100.00
59757;BME280;45631;51.962;5.974;2022-10-31T09:33:17;101879.34;;;14.44;100.00
59757;BME280;45631;51.962;5.974;2022-10-31T09:35:45;101870.97;;;14.50;100.00
59757;BME280;45631;51.962;5.974;2022-10-31T09:38:14;101859.16;;;14.56;100.00
59757;BME280;45631;51.962;5.974;2022-10-31T09:40:46;101833.41;;;14.58;100.00
59757;BME280;45631;51.962;5.974;2022-10-31T09:43:19;101804.72;;;14.52;100.00
59757;BME280;45631;51.962;5.974;2022-10-31T09:45:56;101831.72;;;14.57;100.00
59757;BME280;45631;51.962;5.974;2022-10-31T09:48:51;101835.28;;;14.70;100.00
59757;BME280;45631;51.962;5.974;2022-10-31T09:51:25;101836.38;;;14.81;100.00
59757;BME280;45631;51.962;5.974;2022-10-31T09:54:00;101845.38;;;14.91;100.00
59757;BME280;45631;51.962;5.974;2022-10-31T09:56:31;101842.44;;;14.96;100.00
59757;BME280;45631;51.962;5.974;2022-10-31T09:59:04;101841.16;;;15.01;100.00
59757;BME280;45631;51.962;5.974;2022-10-31T10:01:40;101831.28;;;15.03;100.00
59757;BME280;45631;51.962;5.974;2022-10-31T10:04:29;101847.72;;;15.09;100.00
59757;BME280;45631;51.962;5.974;2022-10-31T10:07:00;101855.66;;;15.09;100.00
59757;BME280;45631;51.962;5.974;2022-10-31T10:09:30;101838.94;;;15.21;100.00
59757;BME280;45631;51.962;5.974;2022-10-31T10:12:08;101847.31;;;15.41;100.00
59757;BME280;45631;51.962;5.974;2022-10-31T10:14:54;101838.16;;;15.58;100.00
59757;BME280;45631;51.962;5.974;2022-10-31T10:17:36;101839.66;;;15.62;100.00
59757;BME280;45631;51.962;5.974;2022-10-31T10:20:18;101829.69;;;15.65;100.00
59757;BME280;45631;51.962;5.974;2022-10-31T10:22:55;101811.41;;;15.74;100.00
59757;BME280;45631;51.962;5.974;2022-10-31T10:25:34;101805.69;;;15.80;100.00
59757;BME280;45631;51.962;5.974;2022-10-31T10:28:14;101814.28;;;15.83;100.00
59757;BME280;45631;51.962;5.974;2022-10-31T10:30:48;101812.03;;;15.90;100.00
59757;BME280;45631;51.962;5.974;2022-10-31T10:33:20;101810.56;;;15.86;100.00
59757;BME280;45631;51.962;5.974;2022-10-31T10:35:51;101809.25;;;15.92;100.00
59757;BME280;45631;51.962;5.974;2022-10-31T10:38:26;101805.97;;;15.88;100.00
59757;BME280;45631;51.962;5.974;2022-10-31T10:40:55;101799.06;;;15.98;100.00
59757;BME280;45631;51.962;5.974;2022-10-31T10:43:30;101800.53;;;16.02;100.00
59757;BME280;45631;51.962;5.974;2022-10-31T10:46:17;101794.03;;;16.07;100.00
59757;BME280;45631;51.962;5.974;2022-10-31T10:49:15;101794.03;;;16.07;100.00
59757;BME280;45631;51.962;5.974;2022-10-31T10:51:46;101801.44;;;16.14;100.00
59757;BME280;45631;51.962;5.974;2022-10-31T10:54:46;101787.31;;;16.14;100.00
59757;BME280;45631;51.962;5.974;2022-10-31T10:57:36;101779.63;;;16.22;100.00
59757;BME280;45631;51.962;5.974;2022-10-31T11:00:17;101773.75;;;16.30;100.00
59757;BME280;45631;51.962;5.974;2022-10-31T11:02:46;101762.56;;;16.37;100.00
59757;BME280;45631;51.962;5.974;2022-10-31T11:05:22;101751.72;;;16.41;100.00
59757;BME280;45631;51.962;5.974;2022-10-31T11:07:53;101755.31;;;16.39;100.00
59757;BME280;45631;51.962;5.974;2022-10-31T11:10:21;101748.81;;;16.44;100.00
59757;BME280;45631;51.962;5.974;2022-10-31T11:13:03;101742.78;;;16.42;100.00
59757;BME280;45631;51.962;5.974;2022-10-31T11:15:36;101735.44;;;16.45;100.00
59757;BME280;45631;51.962;5.974;2022-10-31T11:18:05;101738.69;;;16.49;100.00
59757;BME280;45631;51.962;5.974;2022-10-31T11:20:35;101731.00;;;16.68;100.00
59757;BME280;45631;51.962;5.974;2022-10-31T11:23:16;101725.00;;;16.78;100.00
59757;BME280;45631;51.962;5.974;2022-10-31T11:25:49;101717.41;;;16.84;100.00
59757;BME280;45631;51.962;5.974;2022-10-31T11:28:18;101707.38;;;16.88;100.00
59757;BME280;45631;51.962;5.974;2022-10-31T11:30:49;101704.09;;;16.84;100.00
59757;BME280;45631;51.962;5.974;2022-10-31T11:33:23;101706.75;;;16.84;100.00
59757;BME280;45631;51.962;5.974;2022-10-31T11:35:53;101706.22;;;16.92;100.00
59757;BME280;45631;51.962;5.974;2022-10-31T11:38:28;101688.44;;;16.93;100.00
59757;BME280;45631;51.962;5.974;2022-10-31T11:40:59;101697.38;;;16.92;100.00
59757;BME280;45631;51.962;5.974;2022-10-31T11:43:31;101692.66;;;16.95;100.00
59757;BME280;45631;51.962;5.974;2022-10-31T11:46:08;101672.50;;;16.93;100.00
59757;BME280;45631;51.962;5.974;2022-10-31T11:48:37;101667.56;;;16.99;100.00
59757;BME280;45631;51.962;5.974;2022-10-31T11:51:06;101673.81;;;16.98;100.00
59757;BME280;45631;51.962;5.974;2022-10-31T11:53:35;101659.81;;;17.08;100.00
59757;BME280;45631;51.962;5.974;2022-10-31T11:56:09;101671.16;;;17.10;100.00
59757;BME280;45631;51.962;5.974;2022-10-31T11:58:38;101672.59;;;17.14;100.00
59757;BME280;45631;51.962;5.974;2022-10-31T12:01:24;101663.88;;;17.23;100.00
59757;BME280;45631;51.962;5.974;2022-10-31T12:04:02;101659.41;;;17.35;100.00
59757;BME280;45631;51.962;5.974;2022-10-31T12:06:38;101645.00;;;17.37;100.00
59757;BME280;45631;51.962;5.974;2022-10-31T12:09:18;101639.41;;;17.52;100.00
59757;BME280;45631;51.962;5.974;2022-10-31T12:12:03;101636.25;;;17.58;100.00
59757;BME280;45631;51.962;5.974;2022-10-31T12:14:41;101624.66;;;17.59;100.00
59757;BME280;45631;51.962;5.974;2022-10-31T12:17:14;101610.38;;;17.60;100.00
59757;BME280;45631;51.962;5.974;2022-10-31T12:19:52;101610.81;;;17.65;100.00
59757;BME280;45631;51.962;5.974;2022-10-31T12:22:33;101612.97;;;17.71;100.00
59757;BME280;45631;51.962;5.974;2022-10-31T12:25:16;101602.50;;;17.58;100.00
59757;BME280;45631;51.962;5.974;2022-10-31T12:28:03;101601.88;;;17.66;100.00
59757;BME280;45631;51.962;5.974;2022-10-31T12:30:49;101595.84;;;17.64;100.00
59757;BME280;45631;51.962;5.974;2022-10-31T12:33:45;101591.78;;;17.49;100.00
59757;BME280;45631;51.962;5.974;2022-10-31T12:36:29;101583.81;;;17.49;100.00
59757;BME280;45631;51.962;5.974;2022-10-31T12:39:15;101571.28;;;17.39;100.00
59757;BME280;45631;51.962;5.974;2022-10-31T12:41:52;101564.44;;;17.58;100.00
59757;BME280;45631;51.962;5.974;2022-10-31T12:44:34;101557.34;;;17.47;100.00
59757;BME280;45631;51.962;5.974;2022-10-31T12:47:35;101551.34;;;17.45;100.00
59757;BME280;45631;51.962;5.974;2022-10-31T12:50:19;101536.41;;;17.54;100.00
59757;BME280;45631;51.962;5.974;2022-10-31T12:53:05;101532.53;;;17.58;100.00
59757;BME280;45631;51.962;5.974;2022-10-31T12:55:43;101524.75;;;17.66;100.00
59757;BME280;45631;51.962;5.974;2022-10-31T12:58:19;101515.25;;;17.73;100.00
59757;BME280;45631;51.962;5.974;2022-10-31T13:00:58;101512.78;;;17.82;100.00
59757;BME280;45631;51.962;5.974;2022-10-31T13:03:33;101506.06;;;17.78;100.00
59757;BME280;45631;51.962;5.974;2022-10-31T13:06:08;101500.34;;;17.82;100.00
59757;BME280;45631;51.962;5.974;2022-10-31T13:08:41;101487.59;;;17.86;100.00